KCIC/CIC METAR and TAF weather

Enter ICAO airport designator
Station Type Date Time Source
KCIC METAR 2020/01/18 21:47 UTC NOAA

KCIC 182147Z 31010KT 40SM BKN120 BKN180 09/04 A3035


Station Type Date Time Source
KCIC Decoded METAR 2020/01/18 21:47 UTC NOAA

Chico Municipal , CA, United States (KCIC) 39-48N 121-51W
Jan 18, 2020 - 04:47 PM EST / 2020.01.18 2147 UTC
Wind: from the NW (310 degrees) at 12 MPH (10 KT):0
Visibility: 40 mile(s):0
Sky conditions: mostly cloudy
Temperature: 48 F (9 C)
Dew Point: 39 F (4 C)
Relative Humidity: 70%
Pressure (altimeter): 30.35 in. Hg (1027 hPa)
ob: KCIC 182147Z 31010KT 40SM BKN120 BKN180 09/04 A3035
cycle: 22

Station Type Date Time Source
KCIC TAF UTC NOAA

Error!

Example: see airport list